Pagrindinis puslapis
METAR-TAF:

METAR-TAF

Oro uostai :

RAF

Tain, Škotija

platuma: 57-49N, ilguma: 003-58W, Aukštis: 4 m

Dabartinis oras

Ataskaita buvo paskelbta 32 minutes, ne 17:50 UTC
Vėjas 22 kt iš Pietų/Pietvakarių
Temperatūra 5°C
Drėgmė 75%
Slėgis 990 hPa
Matomumas 10 km arba daugiau

METAR: EGQA 291750Z AUTO 21022KT 9999 OVC150/// 05/01 Q0990

Laikas: 18:22 (18:22 UTC)


TAF: trūkstamas

Orai ataskaitas ir orų prognozės (METAR, TAF).

turimą stotys yra geltonos ir raudonos taškus žemėlapyje.

Perkelti pele per norėdami pamatyti stoties vardą.

Tada spustelėkite, norėdami matyti oro stebėjimo ir prognozės.

Norėdami pakeisti žemėlapį: spustelėkite ant žalios mygtukų su juodo kryžiaus žemyn,; žalią mygtuką su brūkšneliu, jei norite nutolinti; arba žalių rodyklių gretimoms žemėlapius.


METAR-TAF: